sensor_id;sensor_type;location;lat;lon;timestamp;P1;durP1;ratioP1;P2;durP2;ratioP2
20122;SDS011;10222;50.848;4.336;2023-05-16T00:02:01;4.53;;;0.90;;
20122;SDS011;10222;50.848;4.336;2023-05-16T00:04:27;4.47;;;1.27;;
20122;SDS011;10222;50.848;4.336;2023-05-16T00:06:53;5.23;;;1.17;;
20122;SDS011;10222;50.848;4.336;2023-05-16T00:09:20;3.63;;;1.07;;
20122;SDS011;10222;50.848;4.336;2023-05-16T00:11:46;4.90;;;1.10;;
20122;SDS011;10222;50.848;4.336;2023-05-16T00:14:12;4.73;;;1.20;;
20122;SDS011;10222;50.848;4.336;2023-05-16T00:16:40;4.83;;;0.90;;
20122;SDS011;10222;50.848;4.336;2023-05-16T00:19:07;7.37;;;1.20;;
20122;SDS011;10222;50.848;4.336;2023-05-16T00:21:35;6.67;;;1.43;;
20122;SDS011;10222;50.848;4.336;2023-05-16T00:24:01;3.43;;;0.67;;
20122;SDS011;10222;50.848;4.336;2023-05-16T00:26:28;6.10;;;1.37;;
20122;SDS011;10222;50.848;4.336;2023-05-16T00:28:54;9.33;;;1.40;;
20122;SDS011;10222;50.848;4.336;2023-05-16T00:31:21;10.53;;;1.50;;
20122;SDS011;10222;50.848;4.336;2023-05-16T00:33:48;4.07;;;1.30;;
20122;SDS011;10222;50.848;4.336;2023-05-16T00:36:14;5.07;;;1.50;;
20122;SDS011;10222;50.848;4.336;2023-05-16T00:41:10;4.80;;;1.07;;
20122;SDS011;10222;50.848;4.336;2023-05-16T00:43:36;8.30;;;1.10;;
20122;SDS011;10222;50.848;4.336;2023-05-16T00:46:03;10.10;;;2.50;;
20122;SDS011;10222;50.848;4.336;2023-05-16T00:48:29;8.10;;;1.40;;
20122;SDS011;10222;50.848;4.336;2023-05-16T00:50:57;6.40;;;1.07;;
20122;SDS011;10222;50.848;4.336;2023-05-16T00:53:23;10.13;;;1.57;;
20122;SDS011;10222;50.848;4.336;2023-05-16T00:55:50;5.40;;;1.40;;
20122;SDS011;10222;50.848;4.336;2023-05-16T00:58:16;5.57;;;1.47;;
20122;SDS011;10222;50.848;4.336;2023-05-16T01:00:43;4.30;;;0.83;;
20122;SDS011;10222;50.848;4.336;2023-05-16T01:03:14;4.67;;;0.80;;
20122;SDS011;10222;50.848;4.336;2023-05-16T01:05:41;4.03;;;0.87;;
20122;SDS011;10222;50.848;4.336;2023-05-16T01:08:08;4.53;;;1.10;;
20122;SDS011;10222;50.848;4.336;2023-05-16T01:10:56;2.87;;;0.87;;
20122;SDS011;10222;50.848;4.336;2023-05-16T01:13:30;5.40;;;1.10;;
20122;SDS011;10222;50.848;4.336;2023-05-16T01:16:09;4.43;;;0.77;;
20122;SDS011;10222;50.848;4.336;2023-05-16T01:21:15;12.33;;;1.67;;
20122;SDS011;10222;50.848;4.336;2023-05-16T01:28:33;6.43;;;1.30;;
20122;SDS011;10222;50.848;4.336;2023-05-16T01:30:59;3.63;;;0.87;;
20122;SDS011;10222;50.848;4.336;2023-05-16T01:33:27;4.53;;;0.90;;
20122;SDS011;10222;50.848;4.336;2023-05-16T01:36:02;6.50;;;1.33;;
20122;SDS011;10222;50.848;4.336;2023-05-16T01:38:55;9.13;;;1.33;;
20122;SDS011;10222;50.848;4.336;2023-05-16T01:41:20;6.57;;;1.10;;
20122;SDS011;10222;50.848;4.336;2023-05-16T01:43:50;13.33;;;1.50;;
20122;SDS011;10222;50.848;4.336;2023-05-16T01:46:20;6.63;;;1.00;;
20122;SDS011;10222;50.848;4.336;2023-05-16T01:51:17;6.63;;;1.27;;
20122;SDS011;10222;50.848;4.336;2023-05-16T01:53:44;6.60;;;1.83;;
20122;SDS011;10222;50.848;4.336;2023-05-16T01:56:12;4.97;;;1.10;;
20122;SDS011;10222;50.848;4.336;2023-05-16T01:58:40;3.30;;;1.03;;
20122;SDS011;10222;50.848;4.336;2023-05-16T02:01:06;6.43;;;1.80;;
20122;SDS011;10222;50.848;4.336;2023-05-16T02:03:33;2.80;;;1.47;;
20122;SDS011;10222;50.848;4.336;2023-05-16T02:06:00;3.97;;;1.00;;
20122;SDS011;10222;50.848;4.336;2023-05-16T02:08:27;4.77;;;1.00;;
20122;SDS011;10222;50.848;4.336;2023-05-16T02:10:53;7.70;;;1.67;;
20122;SDS011;10222;50.848;4.336;2023-05-16T02:13:20;8.00;;;1.40;;
20122;SDS011;10222;50.848;4.336;2023-05-16T02:15:46;4.27;;;1.10;;
20122;SDS011;10222;50.848;4.336;2023-05-16T02:18:13;6.97;;;1.83;;
20122;SDS011;10222;50.848;4.336;2023-05-16T02:20:41;8.83;;;1.33;;
20122;SDS011;10222;50.848;4.336;2023-05-16T02:23:07;7.33;;;1.20;;
20122;SDS011;10222;50.848;4.336;2023-05-16T02:25:33;11.37;;;1.50;;
20122;SDS011;10222;50.848;4.336;2023-05-16T02:27:59;6.30;;;1.23;;
20122;SDS011;10222;50.848;4.336;2023-05-16T02:30:26;4.00;;;1.27;;
20122;SDS011;10222;50.848;4.336;2023-05-16T02:32:53;5.53;;;1.40;;
20122;SDS011;10222;50.848;4.336;2023-05-16T02:35:20;5.07;;;1.03;;
20122;SDS011;10222;50.848;4.336;2023-05-16T02:37:48;5.57;;;1.20;;
20122;SDS011;10222;50.848;4.336;2023-05-16T02:40:17;6.37;;;1.70;;
20122;SDS011;10222;50.848;4.336;2023-05-16T02:42:44;8.67;;;1.07;;
20122;SDS011;10222;50.848;4.336;2023-05-16T02:45:10;6.13;;;1.27;;
20122;SDS011;10222;50.848;4.336;2023-05-16T02:47:36;6.97;;;1.17;;
20122;SDS011;10222;50.848;4.336;2023-05-16T02:50:03;5.83;;;1.43;;
20122;SDS011;10222;50.848;4.336;2023-05-16T02:52:29;6.30;;;0.93;;
20122;SDS011;10222;50.848;4.336;2023-05-16T02:54:56;9.40;;;1.23;;
20122;SDS011;10222;50.848;4.336;2023-05-16T02:57:23;6.03;;;1.13;;
20122;SDS011;10222;50.848;4.336;2023-05-16T02:59:50;10.00;;;1.40;;
20122;SDS011;10222;50.848;4.336;2023-05-16T03:02:16;10.87;;;1.73;;
20122;SDS011;10222;50.848;4.336;2023-05-16T03:04:42;2.43;;;0.80;;
20122;SDS011;10222;50.848;4.336;2023-05-16T03:07:09;8.20;;;1.37;;
20122;SDS011;10222;50.848;4.336;2023-05-16T03:09:36;4.80;;;1.40;;
20122;SDS011;10222;50.848;4.336;2023-05-16T03:12:02;9.53;;;1.93;;
20122;SDS011;10222;50.848;4.336;2023-05-16T03:14:28;5.53;;;0.97;;
20122;SDS011;10222;50.848;4.336;2023-05-16T03:16:55;4.50;;;1.47;;
20122;SDS011;10222;50.848;4.336;2023-05-16T03:19:22;4.90;;;1.40;;
20122;SDS011;10222;50.848;4.336;2023-05-16T03:21:49;7.10;;;1.33;;
20122;SDS011;10222;50.848;4.336;2023-05-16T03:24:15;5.23;;;0.93;;
20122;SDS011;10222;50.848;4.336;2023-05-16T03:26:41;5.37;;;1.10;;
20122;SDS011;10222;50.848;4.336;2023-05-16T03:29:08;3.40;;;0.93;;
20122;SDS011;10222;50.848;4.336;2023-05-16T03:31:34;6.50;;;1.10;;
20122;SDS011;10222;50.848;4.336;2023-05-16T03:34:01;3.97;;;1.13;;
20122;SDS011;10222;50.848;4.336;2023-05-16T03:36:27;4.23;;;1.47;;
20122;SDS011;10222;50.848;4.336;2023-05-16T03:38:54;11.20;;;1.70;;
20122;SDS011;10222;50.848;4.336;2023-05-16T03:41:21;3.87;;;1.20;;
20122;SDS011;10222;50.848;4.336;2023-05-16T03:43:48;5.13;;;1.40;;
20122;SDS011;10222;50.848;4.336;2023-05-16T03:46:15;9.97;;;1.40;;
20122;SDS011;10222;50.848;4.336;2023-05-16T03:48:41;4.27;;;1.53;;
20122;SDS011;10222;50.848;4.336;2023-05-16T03:51:08;7.57;;;1.90;;
20122;SDS011;10222;50.848;4.336;2023-05-16T03:53:35;3.00;;;1.30;;
20122;SDS011;10222;50.848;4.336;2023-05-16T03:56:02;4.93;;;1.77;;
20122;SDS011;10222;50.848;4.336;2023-05-16T03:58:28;2.43;;;1.27;;
20122;SDS011;10222;50.848;4.336;2023-05-16T04:00:54;5.80;;;1.10;;
20122;SDS011;10222;50.848;4.336;2023-05-16T04:03:20;5.90;;;1.10;;
20122;SDS011;10222;50.848;4.336;2023-05-16T04:05:52;4.40;;;1.00;;
20122;SDS011;10222;50.848;4.336;2023-05-16T04:08:18;7.33;;;1.33;;
20122;SDS011;10222;50.848;4.336;2023-05-16T04:10:44;10.13;;;1.40;;
20122;SDS011;10222;50.848;4.336;2023-05-16T04:13:10;3.23;;;1.07;;
20122;SDS011;10222;50.848;4.336;2023-05-16T04:15:38;7.10;;;1.10;;
20122;SDS011;10222;50.848;4.336;2023-05-16T04:18:04;3.87;;;1.67;;
20122;SDS011;10222;50.848;4.336;2023-05-16T04:20:31;9.13;;;1.23;;
20122;SDS011;10222;50.848;4.336;2023-05-16T04:22:59;3.73;;;0.80;;
20122;SDS011;10222;50.848;4.336;2023-05-16T04:25:25;5.20;;;1.60;;
20122;SDS011;10222;50.848;4.336;2023-05-16T04:27:52;2.33;;;1.30;;
20122;SDS011;10222;50.848;4.336;2023-05-16T04:30:19;5.53;;;1.53;;
20122;SDS011;10222;50.848;4.336;2023-05-16T04:32:45;4.73;;;1.53;;
20122;SDS011;10222;50.848;4.336;2023-05-16T04:35:14;3.13;;;1.50;;
20122;SDS011;10222;50.848;4.336;2023-05-16T04:37:40;5.77;;;1.40;;
20122;SDS011;10222;50.848;4.336;2023-05-16T04:40:06;4.53;;;1.20;;
20122;SDS011;10222;50.848;4.336;2023-05-16T04:42:35;4.57;;;1.23;;
20122;SDS011;10222;50.848;4.336;2023-05-16T04:45:06;2.30;;;1.13;;
20122;SDS011;10222;50.848;4.336;2023-05-16T04:47:36;4.67;;;1.20;;
20122;SDS011;10222;50.848;4.336;2023-05-16T04:50:03;6.87;;;1.30;;
20122;SDS011;10222;50.848;4.336;2023-05-16T04:52:29;7.93;;;2.00;;
20122;SDS011;10222;50.848;4.336;2023-05-16T04:54:58;6.00;;;1.80;;
20122;SDS011;10222;50.848;4.336;2023-05-16T04:57:25;5.73;;;1.70;;
20122;SDS011;10222;50.848;4.336;2023-05-16T04:59:52;7.40;;;1.33;;
20122;SDS011;10222;50.848;4.336;2023-05-16T05:02:18;4.47;;;1.43;;
20122;SDS011;10222;50.848;4.336;2023-05-16T05:04:45;7.83;;;1.50;;
20122;SDS011;10222;50.848;4.336;2023-05-16T05:07:12;5.60;;;1.40;;
20122;SDS011;10222;50.848;4.336;2023-05-16T05:09:39;4.43;;;1.63;;
20122;SDS011;10222;50.848;4.336;2023-05-16T05:12:07;3.87;;;1.20;;
20122;SDS011;10222;50.848;4.336;2023-05-16T05:17:02;9.47;;;1.63;;
20122;SDS011;10222;50.848;4.336;2023-05-16T05:19:29;4.17;;;1.03;;
20122;SDS011;10222;50.848;4.336;2023-05-16T05:26:54;3.20;;;1.33;;
20122;SDS011;10222;50.848;4.336;2023-05-16T05:29:21;3.17;;;0.80;;
20122;SDS011;10222;50.848;4.336;2023-05-16T05:31:47;10.07;;;2.53;;
20122;SDS011;10222;50.848;4.336;2023-05-16T05:34:14;5.37;;;1.87;;
20122;SDS011;10222;50.848;4.336;2023-05-16T05:36:43;5.57;;;1.70;;
20122;SDS011;10222;50.848;4.336;2023-05-16T05:39:11;1.77;;;0.97;;
20122;SDS011;10222;50.848;4.336;2023-05-16T05:41:39;4.73;;;1.07;;
20122;SDS011;10222;50.848;4.336;2023-05-16T05:44:06;3.47;;;1.03;;
20122;SDS011;10222;50.848;4.336;2023-05-16T05:46:33;2.50;;;1.07;;
20122;SDS011;10222;50.848;4.336;2023-05-16T05:49:02;4.57;;;1.50;;
20122;SDS011;10222;50.848;4.336;2023-05-16T05:51:30;2.57;;;1.40;;
20122;SDS011;10222;50.848;4.336;2023-05-16T05:53:56;3.80;;;1.13;;
20122;SDS011;10222;50.848;4.336;2023-05-16T05:56:23;4.03;;;1.10;;
20122;SDS011;10222;50.848;4.336;2023-05-16T05:58:53;4.50;;;1.00;;
20122;SDS011;10222;50.848;4.336;2023-05-16T06:01:21;5.87;;;1.30;;
20122;SDS011;10222;50.848;4.336;2023-05-16T06:03:49;6.70;;;1.03;;
20122;SDS011;10222;50.848;4.336;2023-05-16T06:06:19;4.63;;;0.70;;
20122;SDS011;10222;50.848;4.336;2023-05-16T06:08:47;6.87;;;1.40;;
20122;SDS011;10222;50.848;4.336;2023-05-16T06:11:14;4.90;;;0.83;;
20122;SDS011;10222;50.848;4.336;2023-05-16T06:13:46;4.90;;;1.17;;
20122;SDS011;10222;50.848;4.336;2023-05-16T06:16:15;7.00;;;1.00;;
20122;SDS011;10222;50.848;4.336;2023-05-16T06:18:42;2.47;;;0.90;;
20122;SDS011;10222;50.848;4.336;2023-05-16T06:21:10;5.90;;;1.67;;
20122;SDS011;10222;50.848;4.336;2023-05-16T06:23:42;7.17;;;1.10;;
20122;SDS011;10222;50.848;4.336;2023-05-16T06:26:11;4.13;;;1.07;;
20122;SDS011;10222;50.848;4.336;2023-05-16T06:28:40;3.80;;;1.07;;
20122;SDS011;10222;50.848;4.336;2023-05-16T06:31:06;1.67;;;0.77;;
20122;SDS011;10222;50.848;4.336;2023-05-16T06:33:32;8.23;;;1.13;;
20122;SDS011;10222;50.848;4.336;2023-05-16T06:36:01;3.83;;;1.30;;
20122;SDS011;10222;50.848;4.336;2023-05-16T06:40:56;5.70;;;1.00;;
20122;SDS011;10222;50.848;4.336;2023-05-16T06:43:23;3.83;;;1.10;;
20122;SDS011;10222;50.848;4.336;2023-05-16T06:45:52;4.17;;;1.27;;
20122;SDS011;10222;50.848;4.336;2023-05-16T06:48:19;6.80;;;0.70;;
20122;SDS011;10222;50.848;4.336;2023-05-16T06:50:48;5.03;;;1.63;;
20122;SDS011;10222;50.848;4.336;2023-05-16T06:55:48;7.70;;;1.50;;
20122;SDS011;10222;50.848;4.336;2023-05-16T06:58:14;3.23;;;1.10;;
20122;SDS011;10222;50.848;4.336;2023-05-16T07:00:40;3.40;;;0.83;;
20122;SDS011;10222;50.848;4.336;2023-05-16T07:03:08;5.67;;;1.43;;
20122;SDS011;10222;50.848;4.336;2023-05-16T07:05:34;3.70;;;0.90;;
20122;SDS011;10222;50.848;4.336;2023-05-16T07:08:00;5.60;;;0.93;;
20122;SDS011;10222;50.848;4.336;2023-05-16T07:10:26;5.53;;;1.07;;
20122;SDS011;10222;50.848;4.336;2023-05-16T07:12:52;9.43;;;1.20;;
20122;SDS011;10222;50.848;4.336;2023-05-16T07:15:21;7.40;;;0.80;;
20122;SDS011;10222;50.848;4.336;2023-05-16T07:17:48;1.70;;;0.80;;
20122;SDS011;10222;50.848;4.336;2023-05-16T07:20:17;6.00;;;1.57;;
20122;SDS011;10222;50.848;4.336;2023-05-16T07:22:44;7.53;;;1.30;;
20122;SDS011;10222;50.848;4.336;2023-05-16T07:25:16;2.20;;;0.70;;
20122;SDS011;10222;50.848;4.336;2023-05-16T07:27:44;4.33;;;1.20;;
20122;SDS011;10222;50.848;4.336;2023-05-16T07:30:11;4.03;;;0.67;;
20122;SDS011;10222;50.848;4.336;2023-05-16T07:32:37;3.80;;;0.90;;
20122;SDS011;10222;50.848;4.336;2023-05-16T07:35:06;4.77;;;0.70;;
20122;SDS011;10222;50.848;4.336;2023-05-16T07:37:34;4.20;;;0.87;;
20122;SDS011;10222;50.848;4.336;2023-05-16T07:40:01;2.83;;;0.93;;
20122;SDS011;10222;50.848;4.336;2023-05-16T07:42:30;4.07;;;0.90;;
20122;SDS011;10222;50.848;4.336;2023-05-16T07:44:57;2.17;;;1.10;;
20122;SDS011;10222;50.848;4.336;2023-05-16T07:47:24;7.13;;;1.07;;
20122;SDS011;10222;50.848;4.336;2023-05-16T07:49:53;3.43;;;0.60;;
20122;SDS011;10222;50.848;4.336;2023-05-16T07:52:24;4.47;;;1.03;;
20122;SDS011;10222;50.848;4.336;2023-05-16T07:54:53;2.60;;;0.83;;
20122;SDS011;10222;50.848;4.336;2023-05-16T07:57:19;3.77;;;0.67;;
20122;SDS011;10222;50.848;4.336;2023-05-16T07:59:46;4.07;;;1.27;;
20122;SDS011;10222;50.848;4.336;2023-05-16T08:02:12;1.93;;;0.70;;
20122;SDS011;10222;50.848;4.336;2023-05-16T08:04:38;2.77;;;0.80;;
20122;SDS011;10222;50.848;4.336;2023-05-16T08:07:07;3.77;;;1.17;;
20122;SDS011;10222;50.848;4.336;2023-05-16T08:09:34;1.63;;;0.70;;
20122;SDS011;10222;50.848;4.336;2023-05-16T08:12:02;3.57;;;0.87;;
20122;SDS011;10222;50.848;4.336;2023-05-16T08:14:31;2.43;;;0.80;;
20122;SDS011;10222;50.848;4.336;2023-05-16T08:17:02;2.10;;;0.60;;
20122;SDS011;10222;50.848;4.336;2023-05-16T08:19:29;3.90;;;0.80;;
20122;SDS011;10222;50.848;4.336;2023-05-16T08:22:05;3.80;;;0.70;;
20122;SDS011;10222;50.848;4.336;2023-05-16T08:24:33;1.10;;;0.70;;
20122;SDS011;10222;50.848;4.336;2023-05-16T08:26:59;2.73;;;0.67;;
20122;SDS011;10222;50.848;4.336;2023-05-16T08:29:30;6.07;;;0.83;;
20122;SDS011;10222;50.848;4.336;2023-05-16T08:32:00;4.13;;;0.70;;
20122;SDS011;10222;50.848;4.336;2023-05-16T08:34:35;3.47;;;1.00;;
20122;SDS011;10222;50.848;4.336;2023-05-16T08:37:02;3.07;;;0.97;;
20122;SDS011;10222;50.848;4.336;2023-05-16T08:39:30;4.40;;;0.80;;
20122;SDS011;10222;50.848;4.336;2023-05-16T08:41:56;3.90;;;0.93;;
20122;SDS011;10222;50.848;4.336;2023-05-16T08:44:23;3.83;;;1.10;;
20122;SDS011;10222;50.848;4.336;2023-05-16T08:46:51;5.93;;;0.90;;
20122;SDS011;10222;50.848;4.336;2023-05-16T08:49:20;3.77;;;0.83;;
20122;SDS011;10222;50.848;4.336;2023-05-16T08:51:50;4.90;;;1.20;;
20122;SDS011;10222;50.848;4.336;2023-05-16T08:54:17;1.23;;;0.53;;
20122;SDS011;10222;50.848;4.336;2023-05-16T08:56:45;6.50;;;0.80;;
20122;SDS011;10222;50.848;4.336;2023-05-16T08:59:14;1.67;;;0.53;;
20122;SDS011;10222;50.848;4.336;2023-05-16T09:01:41;4.00;;;0.80;;
20122;SDS011;10222;50.848;4.336;2023-05-16T09:04:08;6.43;;;1.00;;
20122;SDS011;10222;50.848;4.336;2023-05-16T09:06:40;6.90;;;0.90;;
20122;SDS011;10222;50.848;4.336;2023-05-16T09:09:08;1.03;;;0.70;;
20122;SDS011;10222;50.848;4.336;2023-05-16T09:11:37;4.90;;;0.60;;
20122;SDS011;10222;50.848;4.336;2023-05-16T09:14:03;2.30;;;0.70;;
20122;SDS011;10222;50.848;4.336;2023-05-16T09:19:01;3.80;;;0.80;;
20122;SDS011;10222;50.848;4.336;2023-05-16T09:21:29;9.80;;;0.93;;
20122;SDS011;10222;50.848;4.336;2023-05-16T09:24:05;1.73;;;0.53;;
20122;SDS011;10222;50.848;4.336;2023-05-16T09:26:32;3.87;;;0.83;;
20122;SDS011;10222;50.848;4.336;2023-05-16T09:31:28;6.33;;;1.13;;
20122;SDS011;10222;50.848;4.336;2023-05-16T09:34:07;3.00;;;0.80;;
20122;SDS011;10222;50.848;4.336;2023-05-16T09:36:36;2.63;;;1.10;;
20122;SDS011;10222;50.848;4.336;2023-05-16T09:39:05;0.43;;;0.40;;
20122;SDS011;10222;50.848;4.336;2023-05-16T09:41:34;4.13;;;0.83;;
20122;SDS011;10222;50.848;4.336;2023-05-16T09:44:06;2.83;;;0.80;;
20122;SDS011;10222;50.848;4.336;2023-05-16T09:46:33;1.00;;;0.40;;
20122;SDS011;10222;50.848;4.336;2023-05-16T09:49:02;2.90;;;0.70;;
20122;SDS011;10222;50.848;4.336;2023-05-16T09:51:28;0.63;;;0.37;;
20122;SDS011;10222;50.848;4.336;2023-05-16T09:53:58;4.43;;;0.60;;
20122;SDS011;10222;50.848;4.336;2023-05-16T09:58:55;1.27;;;0.63;;
20122;SDS011;10222;50.848;4.336;2023-05-16T10:01:23;2.10;;;0.60;;
20122;SDS011;10222;50.848;4.336;2023-05-16T10:03:49;2.40;;;0.43;;
20122;SDS011;10222;50.848;4.336;2023-05-16T10:06:26;3.33;;;0.77;;
20122;SDS011;10222;50.848;4.336;2023-05-16T10:08:53;3.97;;;0.77;;
20122;SDS011;10222;50.848;4.336;2023-05-16T10:11:22;2.37;;;0.60;;
20122;SDS011;10222;50.848;4.336;2023-05-16T10:13:49;2.37;;;0.70;;
20122;SDS011;10222;50.848;4.336;2023-05-16T10:21:16;0.87;;;0.30;;
20122;SDS011;10222;50.848;4.336;2023-05-16T10:23:45;1.63;;;0.63;;
20122;SDS011;10222;50.848;4.336;2023-05-16T10:26:13;2.40;;;0.80;;
20122;SDS011;10222;50.848;4.336;2023-05-16T10:31:12;4.53;;;0.67;;
20122;SDS011;10222;50.848;4.336;2023-05-16T10:33:39;4.20;;;0.63;;
20122;SDS011;10222;50.848;4.336;2023-05-16T10:36:08;1.90;;;0.60;;
20122;SDS011;10222;50.848;4.336;2023-05-16T10:38:41;3.67;;;0.83;;
20122;SDS011;10222;50.848;4.336;2023-05-16T10:41:07;0.87;;;0.53;;
20122;SDS011;10222;50.848;4.336;2023-05-16T10:43:37;2.37;;;0.40;;
20122;SDS011;10222;50.848;4.336;2023-05-16T10:46:06;1.30;;;0.60;;
20122;SDS011;10222;50.848;4.336;2023-05-16T10:48:37;3.80;;;0.50;;
20122;SDS011;10222;50.848;4.336;2023-05-16T10:53:54;3.67;;;0.60;;
20122;SDS011;10222;50.848;4.336;2023-05-16T10:56:29;1.07;;;0.40;;
20122;SDS011;10222;50.848;4.336;2023-05-16T10:58:57;4.73;;;0.70;;
20122;SDS011;10222;50.848;4.336;2023-05-16T11:01:27;1.83;;;0.87;;
20122;SDS011;10222;50.848;4.336;2023-05-16T11:07:10;1.70;;;0.50;;
20122;SDS011;10222;50.848;4.336;2023-05-16T11:09:19;1.10;;;0.50;;
20122;SDS011;10222;50.848;4.336;2023-05-16T11:11:47;4.27;;;0.67;;
20122;SDS011;10222;50.848;4.336;2023-05-16T11:14:40;0.67;;;0.50;;
20122;SDS011;10222;50.848;4.336;2023-05-16T11:19:43;0.77;;;0.60;;
20122;SDS011;10222;50.848;4.336;2023-05-16T11:22:25;4.17;;;1.00;;
20122;SDS011;10222;50.848;4.336;2023-05-16T11:25:08;1.60;;;0.93;;
20122;SDS011;10222;50.848;4.336;2023-05-16T11:27:41;3.57;;;0.50;;
20122;SDS011;10222;50.848;4.336;2023-05-16T11:30:15;3.43;;;0.90;;
20122;SDS011;10222;50.848;4.336;2023-05-16T11:32:42;2.00;;;0.47;;
20122;SDS011;10222;50.848;4.336;2023-05-16T11:35:09;1.43;;;0.50;;
20122;SDS011;10222;50.848;4.336;2023-05-16T11:40:06;3.00;;;0.70;;
20122;SDS011;10222;50.848;4.336;2023-05-16T11:42:38;2.60;;;0.70;;
20122;SDS011;10222;50.848;4.336;2023-05-16T11:47:31;3.43;;;0.90;;
20122;SDS011;10222;50.848;4.336;2023-05-16T11:49:57;2.47;;;0.77;;
20122;SDS011;10222;50.848;4.336;2023-05-16T11:52:25;0.50;;;0.33;;
20122;SDS011;10222;50.848;4.336;2023-05-16T11:54:53;1.47;;;0.57;;
20122;SDS011;10222;50.848;4.336;2023-05-16T11:57:21;2.20;;;0.50;;
20122;SDS011;10222;50.848;4.336;2023-05-16T11:59:47;2.03;;;0.73;;
20122;SDS011;10222;50.848;4.336;2023-05-16T12:02:13;3.57;;;0.70;;
20122;SDS011;10222;50.848;4.336;2023-05-16T12:04:45;3.73;;;1.00;;
20122;SDS011;10222;50.848;4.336;2023-05-16T12:07:13;0.90;;;0.50;;
20122;SDS011;10222;50.848;4.336;2023-05-16T12:09:40;1.70;;;0.60;;
20122;SDS011;10222;50.848;4.336;2023-05-16T12:12:06;3.73;;;0.90;;
20122;SDS011;10222;50.848;4.336;2023-05-16T12:14:33;1.63;;;0.60;;
20122;SDS011;10222;50.848;4.336;2023-05-16T12:16:59;2.27;;;0.70;;
20122;SDS011;10222;50.848;4.336;2023-05-16T12:19:26;2.10;;;0.53;;
20122;SDS011;10222;50.848;4.336;2023-05-16T12:21:52;4.43;;;0.73;;
20122;SDS011;10222;50.848;4.336;2023-05-16T12:24:21;1.83;;;0.70;;
20122;SDS011;10222;50.848;4.336;2023-05-16T12:26:54;3.67;;;0.60;;
20122;SDS011;10222;50.848;4.336;2023-05-16T12:29:23;2.10;;;0.30;;
20122;SDS011;10222;50.848;4.336;2023-05-16T12:31:52;0.87;;;0.60;;
20122;SDS011;10222;50.848;4.336;2023-05-16T12:34:19;2.63;;;0.70;;
20122;SDS011;10222;50.848;4.336;2023-05-16T12:39:17;0.73;;;0.30;;
20122;SDS011;10222;50.848;4.336;2023-05-16T12:41:44;1.60;;;0.63;;
20122;SDS011;10222;50.848;4.336;2023-05-16T12:46:41;0.97;;;0.53;;
20122;SDS011;10222;50.848;4.336;2023-05-16T12:49:08;2.47;;;0.50;;
20122;SDS011;10222;50.848;4.336;2023-05-16T12:51:34;2.30;;;0.63;;
20122;SDS011;10222;50.848;4.336;2023-05-16T12:54:09;5.53;;;0.80;;
20122;SDS011;10222;50.848;4.336;2023-05-16T12:56:40;2.53;;;0.50;;
20122;SDS011;10222;50.848;4.336;2023-05-16T12:59:09;1.60;;;0.40;;
20122;SDS011;10222;50.848;4.336;2023-05-16T13:01:38;1.70;;;0.73;;
20122;SDS011;10222;50.848;4.336;2023-05-16T13:04:05;0.47;;;0.23;;
20122;SDS011;10222;50.848;4.336;2023-05-16T13:06:34;3.83;;;0.70;;
20122;SDS011;10222;50.848;4.336;2023-05-16T13:09:04;3.83;;;0.57;;
20122;SDS011;10222;50.848;4.336;2023-05-16T13:11:31;0.87;;;0.30;;
20122;SDS011;10222;50.848;4.336;2023-05-16T13:13:58;3.57;;;0.60;;
20122;SDS011;10222;50.848;4.336;2023-05-16T13:16:27;4.33;;;0.70;;
20122;SDS011;10222;50.848;4.336;2023-05-16T13:18:56;2.43;;;0.60;;
20122;SDS011;10222;50.848;4.336;2023-05-16T13:21:26;1.23;;;0.50;;
20122;SDS011;10222;50.848;4.336;2023-05-16T13:23:57;3.43;;;0.73;;
20122;SDS011;10222;50.848;4.336;2023-05-16T13:26:26;2.70;;;0.80;;
20122;SDS011;10222;50.848;4.336;2023-05-16T13:28:53;2.43;;;0.67;;
20122;SDS011;10222;50.848;4.336;2023-05-16T13:31:20;1.17;;;0.47;;
20122;SDS011;10222;50.848;4.336;2023-05-16T13:33:47;1.40;;;0.50;;
20122;SDS011;10222;50.848;4.336;2023-05-16T13:36:13;2.03;;;0.70;;
20122;SDS011;10222;50.848;4.336;2023-05-16T13:38:40;2.83;;;0.73;;
20122;SDS011;10222;50.848;4.336;2023-05-16T13:41:07;2.43;;;0.63;;
20122;SDS011;10222;50.848;4.336;2023-05-16T13:43:34;5.17;;;0.80;;
20122;SDS011;10222;50.848;4.336;2023-05-16T13:46:00;4.00;;;1.00;;
20122;SDS011;10222;50.848;4.336;2023-05-16T13:48:28;3.30;;;0.83;;
20122;SDS011;10222;50.848;4.336;2023-05-16T13:50:54;2.60;;;0.70;;
20122;SDS011;10222;50.848;4.336;2023-05-16T13:53:20;1.70;;;0.60;;
20122;SDS011;10222;50.848;4.336;2023-05-16T13:55:49;2.27;;;0.70;;
20122;SDS011;10222;50.848;4.336;2023-05-16T13:58:15;0.90;;;0.30;;
20122;SDS011;10222;50.848;4.336;2023-05-16T14:00:41;4.03;;;0.40;;
20122;SDS011;10222;50.848;4.336;2023-05-16T14:03:10;3.00;;;0.57;;
20122;SDS011;10222;50.848;4.336;2023-05-16T14:08:06;2.53;;;0.43;;
20122;SDS011;10222;50.848;4.336;2023-05-16T14:13:02;3.23;;;0.70;;
20122;SDS011;10222;50.848;4.336;2023-05-16T14:15:29;1.20;;;0.50;;
20122;SDS011;10222;50.848;4.336;2023-05-16T14:17:57;1.87;;;0.60;;
20122;SDS011;10222;50.848;4.336;2023-05-16T14:20:25;0.63;;;0.30;;
20122;SDS011;10222;50.848;4.336;2023-05-16T14:22:52;2.23;;;0.60;;
20122;SDS011;10222;50.848;4.336;2023-05-16T14:25:19;2.77;;;0.70;;
20122;SDS011;10222;50.848;4.336;2023-05-16T14:27:48;3.03;;;0.50;;
20122;SDS011;10222;50.848;4.336;2023-05-16T14:30:16;1.47;;;0.80;;
20122;SDS011;10222;50.848;4.336;2023-05-16T14:32:43;1.05;;;0.40;;
20122;SDS011;10222;50.848;4.336;2023-05-16T14:35:11;1.27;;;0.38;;
20122;SDS011;10222;50.848;4.336;2023-05-16T14:40:08;1.50;;;0.40;;
20122;SDS011;10222;50.848;4.336;2023-05-16T14:42:35;3.42;;;0.28;;
20122;SDS011;10222;50.848;4.336;2023-05-16T14:45:03;2.90;;;0.35;;
20122;SDS011;10222;50.848;4.336;2023-05-16T14:47:29;3.90;;;0.57;;
20122;SDS011;10222;50.848;4.336;2023-05-16T14:49:56;0.93;;;0.40;;
20122;SDS011;10222;50.848;4.336;2023-05-16T14:52:23;1.52;;;0.40;;
20122;SDS011;10222;50.848;4.336;2023-05-16T14:54:49;2.45;;;0.73;;
20122;SDS011;10222;50.848;4.336;2023-05-16T14:57:16;4.00;;;0.77;;
20122;SDS011;10222;50.848;4.336;2023-05-16T14:59:43;2.58;;;0.30;;
20122;SDS011;10222;50.848;4.336;2023-05-16T15:02:11;1.92;;;0.35;;
20122;SDS011;10222;50.848;4.336;2023-05-16T15:04:40;1.85;;;0.57;;
20122;SDS011;10222;50.848;4.336;2023-05-16T15:07:07;1.90;;;0.60;;
20122;SDS011;10222;50.848;4.336;2023-05-16T15:09:35;0.75;;;0.25;;
20122;SDS011;10222;50.848;4.336;2023-05-16T15:12:02;2.83;;;0.50;;
20122;SDS011;10222;50.848;4.336;2023-05-16T15:14:29;1.40;;;0.52;;
20122;SDS011;10222;50.848;4.336;2023-05-16T15:16:56;2.00;;;0.38;;
20122;SDS011;10222;50.848;4.336;2023-05-16T15:19:23;1.63;;;0.32;;
20122;SDS011;10222;50.848;4.336;2023-05-16T15:21:52;1.77;;;0.63;;
20122;SDS011;10222;50.848;4.336;2023-05-16T15:24:19;2.95;;;0.57;;
20122;SDS011;10222;50.848;4.336;2023-05-16T15:26:46;0.63;;;0.32;;
20122;SDS011;10222;50.848;4.336;2023-05-16T15:29:14;1.95;;;0.45;;
20122;SDS011;10222;50.848;4.336;2023-05-16T15:31:41;2.45;;;0.55;;
20122;SDS011;10222;50.848;4.336;2023-05-16T15:34:08;1.52;;;0.40;;
20122;SDS011;10222;50.848;4.336;2023-05-16T15:36:37;2.05;;;0.47;;
20122;SDS011;10222;50.848;4.336;2023-05-16T15:39:03;1.70;;;0.47;;
20122;SDS011;10222;50.848;4.336;2023-05-16T15:41:33;2.58;;;0.40;;
20122;SDS011;10222;50.848;4.336;2023-05-16T15:44:00;2.22;;;0.43;;
20122;SDS011;10222;50.848;4.336;2023-05-16T15:46:28;1.33;;;0.50;;
20122;SDS011;10222;50.848;4.336;2023-05-16T15:48:57;1.85;;;0.57;;
20122;SDS011;10222;50.848;4.336;2023-05-16T15:51:23;1.42;;;0.40;;
20122;SDS011;10222;50.848;4.336;2023-05-16T15:53:51;0.93;;;0.30;;
20122;SDS011;10222;50.848;4.336;2023-05-16T15:56:20;0.25;;;0.20;;
20122;SDS011;10222;50.848;4.336;2023-05-16T15:58:48;0.93;;;0.38;;